createdAt,value
2018-12-13T00:00:18.671Z,68.59
2018-12-13T00:02:49.154Z,68.46
2018-12-13T00:05:30.146Z,68.60
2018-12-13T00:08:10.963Z,68.65
2018-12-13T00:10:52.156Z,68.54
2018-12-13T00:13:23.568Z,68.84
2018-12-13T00:15:53.672Z,68.51
2018-12-13T00:18:23.701Z,67.96
2018-12-13T00:20:53.853Z,68.07
2018-12-13T00:23:25.838Z,68.02
2018-12-13T00:25:55.883Z,67.92
2018-12-13T00:28:30.575Z,67.39
2018-12-13T00:31:01.894Z,67.21
2018-12-13T00:33:33.145Z,67.11
2018-12-13T00:36:14.725Z,67.02
2018-12-13T00:38:55.958Z,67.15
2018-12-13T00:41:27.382Z,67.18
2018-12-13T00:44:01.407Z,67.12
2018-12-13T00:46:42.185Z,67.12
2018-12-13T00:49:23.413Z,67.11
2018-12-13T00:52:00.074Z,67.08
2018-12-13T00:54:30.194Z,66.62
2018-12-13T00:57:05.359Z,67.26
2018-12-13T00:59:46.327Z,67.78
2018-12-13T01:02:17.926Z,67.70
2018-12-13T01:04:59.529Z,67.25
2018-12-13T01:07:40.596Z,67.05
2018-12-13T01:10:21.650Z,66.94
2018-12-13T01:12:57.936Z,66.94
2018-12-13T01:15:38.755Z,66.47
2018-12-13T01:18:19.838Z,66.55
2018-12-13T01:20:56.251Z,66.24
2018-12-13T01:23:27.443Z,66.48
2018-12-13T01:26:01.429Z,66.31
2018-12-13T01:28:42.069Z,66.54
2018-12-13T01:31:23.059Z,66.42
2018-12-13T01:33:54.721Z,66.56
2018-12-13T01:36:31.069Z,66.82
2018-12-13T01:39:07.094Z,66.45
2018-12-13T01:41:48.613Z,66.16
2018-12-13T01:44:20.073Z,66.27
2018-12-13T01:46:54.996Z,66.10
2018-12-13T01:49:30.515Z,66.01
2018-12-13T01:52:02.441Z,66.49
2018-12-13T01:54:36.383Z,66.72
2018-12-13T01:57:17.183Z,66.55
2018-12-13T01:59:46.810Z,66.61
2018-12-13T02:02:18.912Z,66.53
2018-12-13T02:04:50.161Z,66.29
2018-12-13T02:07:22.402Z,66.30
2018-12-13T02:10:01.085Z,66.76
2018-12-13T02:12:32.839Z,66.78
2018-12-13T02:15:07.874Z,66.40
2018-12-13T02:17:48.541Z,66.67
2018-12-13T02:20:23.060Z,66.75
2018-12-13T02:22:54.877Z,66.92
2018-12-13T02:25:35.502Z,66.58
2018-12-13T02:28:09.779Z,66.79
2018-12-13T02:30:45.235Z,67.67
2018-12-13T02:33:17.109Z,67.42
2018-12-13T02:35:58.655Z,67.74
2018-12-13T02:38:34.298Z,67.48
2018-12-13T02:41:15.240Z,67.83
2018-12-13T02:43:47.875Z,68.14
2018-12-13T02:46:20.165Z,67.80
2018-12-13T02:49:01.294Z,68.54
2018-12-13T02:51:42.039Z,68.51
2018-12-13T02:54:13.872Z,69.39
2018-12-13T02:56:55.449Z,68.98
2018-12-13T02:59:29.816Z,69.49
2018-12-13T03:02:01.044Z,69.26
2018-12-13T03:04:32.966Z,69.63
2018-12-13T03:07:14.393Z,69.58
2018-12-13T03:09:45.722Z,69.63
2018-12-13T03:12:27.154Z,69.34
2018-12-13T03:15:01.603Z,69.95
2018-12-13T03:17:32.912Z,69.76
2018-12-13T03:20:07.089Z,69.97
2018-12-13T03:22:39.101Z,69.90
2018-12-13T03:25:10.333Z,69.94
2018-12-13T03:27:40.491Z,69.96
2018-12-13T03:30:18.370Z,70.22
2018-12-13T03:32:49.819Z,70.20
2018-12-13T03:35:19.943Z,70.29
2018-12-13T03:37:50.034Z,70.65
2018-12-13T03:40:26.788Z,70.33
2018-12-13T03:43:01.113Z,70.17
2018-12-13T03:45:35.118Z,70.62
2018-12-13T03:48:06.439Z,70.25
2018-12-13T03:50:41.319Z,71.05
2018-12-13T03:53:15.531Z,71.03
2018-12-13T03:55:49.705Z,70.89
2018-12-13T03:58:19.220Z,70.92
2018-12-13T04:00:56.494Z,71.29
2018-12-13T04:03:33.017Z,71.13
2018-12-13T04:06:04.732Z,71.26
2018-12-13T04:08:49.183Z,71.42
2018-12-13T04:11:18.836Z,71.02
2018-12-13T04:13:50.983Z,70.95
2018-12-13T04:16:33.728Z,71.40
2018-12-13T04:19:03.534Z,71.14
2018-12-13T04:21:45.064Z,71.09
2018-12-13T04:24:17.241Z,71.12
2018-12-13T04:26:46.833Z,70.99
2018-12-13T04:29:18.847Z,71.49
2018-12-13T04:31:50.065Z,70.93
2018-12-13T04:34:22.102Z,70.85
2018-12-13T04:36:57.023Z,70.96
2018-12-13T04:39:28.331Z,71.33
2018-12-13T04:42:09.821Z,71.02
2018-12-13T04:44:44.074Z,70.99
2018-12-13T04:47:15.530Z,70.61
2018-12-13T04:49:50.373Z,70.19
2018-12-13T04:52:21.718Z,70.55
2018-12-13T04:55:08.927Z,70.33
2018-12-13T04:57:50.391Z,70.08
2018-12-13T05:00:20.149Z,70.26
2018-12-13T05:02:52.166Z,69.78
2018-12-13T05:05:23.561Z,69.84
2018-12-13T05:07:58.110Z,69.54
2018-12-13T05:10:47.184Z,69.17
2018-12-13T05:13:22.665Z,69.32
2018-12-13T05:15:52.748Z,69.17
2018-12-13T05:18:34.274Z,69.24
2018-12-13T05:21:08.654Z,68.96
2018-12-13T05:23:40.881Z,69.24
2018-12-13T05:26:22.453Z,68.72
2018-12-13T05:28:54.149Z,69.09
2018-12-13T05:31:34.836Z,68.98
2018-12-13T05:34:05.633Z,68.29
2018-12-13T05:36:42.318Z,68.73
2018-12-13T05:42:14.279Z,68.45
2018-12-13T05:50:49.942Z,68.44
2018-12-13T06:08:34.895Z,67.99
2018-12-13T06:56:14.262Z,67.47
2018-12-13T07:07:48.878Z,67.96
2018-12-13T08:27:43.654Z,67.00
2018-12-13T08:30:13.269Z,66.50
2018-12-13T08:32:45.349Z,66.26
2018-12-13T08:35:26.756Z,66.32
2018-12-13T08:38:08.765Z,65.81
2018-12-13T08:40:40.537Z,66.39
2018-12-13T08:43:10.026Z,65.84
2018-12-13T08:45:51.353Z,65.14
2018-12-13T08:48:33.422Z,66.11
2018-12-13T08:51:03.137Z,65.66
2018-12-13T08:53:38.038Z,65.48
2018-12-13T08:56:18.786Z,65.29
2018-12-13T08:58:53.175Z,65.87
2018-12-13T09:01:34.820Z,65.48
2018-12-13T09:04:06.452Z,64.95
2018-12-13T09:06:41.308Z,64.26
2018-12-13T09:09:22.088Z,64.72
2018-12-13T09:11:52.033Z,64.26
2018-12-13T09:14:24.227Z,64.47
2018-12-13T09:16:58.809Z,63.50
2018-12-13T09:19:39.585Z,63.25
2018-12-13T09:22:20.435Z,63.87
2018-12-13T09:24:51.856Z,63.54
2018-12-13T09:27:32.538Z,62.71
2018-12-13T09:33:05.059Z,63.26
2018-12-13T09:35:45.843Z,62.46
2018-12-13T09:38:27.457Z,62.05
2018-12-13T09:41:08.914Z,62.59
2018-12-13T09:43:40.546Z,62.58
2018-12-13T09:46:21.893Z,62.59
2018-12-13T09:49:02.907Z,62.08
2018-12-13T09:51:44.010Z,61.43
2018-12-13T09:54:15.653Z,61.85
2018-12-13T09:56:56.306Z,61.40
2018-12-13T09:59:37.497Z,61.64
2018-12-13T10:02:18.442Z,61.34
2018-12-13T10:04:53.606Z,60.88
2018-12-13T10:07:34.542Z,60.55
2018-12-13T10:10:16.272Z,61.29
2018-12-13T10:12:50.744Z,59.43
2018-12-13T10:15:32.176Z,59.81
2018-12-13T10:18:01.864Z,58.80
2018-12-13T10:20:43.298Z,59.30
2018-12-13T10:23:15.028Z,59.10
2018-12-13T10:25:49.846Z,60.03
2018-12-13T10:28:30.831Z,59.41
2018-12-13T10:31:06.435Z,59.42
2018-12-13T10:33:41.405Z,58.05
2018-12-13T10:36:16.920Z,57.51
2018-12-13T10:38:45.215Z,58.42
2018-12-13T10:41:21.719Z,57.17
2018-12-13T10:43:53.122Z,57.36
2018-12-13T10:46:27.131Z,56.27
2018-12-13T10:52:08.114Z,55.30
2018-12-13T10:54:37.804Z,54.86
2018-12-13T10:57:12.712Z,55.03
2018-12-13T10:59:53.544Z,55.63
2018-12-13T11:02:30.277Z,54.76
2018-12-13T11:05:04.747Z,54.70
2018-12-13T11:07:34.903Z,54.82
2018-12-13T11:10:16.513Z,53.72
2018-12-13T11:12:57.609Z,53.47
2018-12-13T11:15:31.971Z,55.09
2018-12-13T11:18:12.704Z,55.41
2018-12-13T11:20:53.716Z,55.85
2018-12-13T11:23:25.365Z,55.35
2018-12-13T11:25:55.483Z,54.33
2018-12-13T11:28:42.852Z,55.04
2018-12-13T11:31:24.194Z,55.31
2018-12-13T11:33:56.022Z,53.88
2018-12-13T11:36:26.130Z,53.79
2018-12-13T11:38:56.053Z,54.29
2018-12-13T11:41:36.882Z,54.11
2018-12-13T11:44:08.686Z,54.44
2018-12-13T11:46:40.038Z,52.79
2018-12-13T11:49:20.666Z,53.25
2018-12-13T11:52:01.568Z,51.79
2018-12-13T11:54:42.519Z,52.21
2018-12-13T11:57:23.629Z,51.95
2018-12-13T12:00:04.810Z,52.91
2018-12-13T12:02:36.440Z,52.08
2018-12-13T12:05:17.954Z,53.60
2018-12-13T12:07:59.248Z,52.34
2018-12-13T12:10:28.937Z,51.90
2018-12-13T12:13:00.726Z,51.31
2018-12-13T12:15:42.306Z,53.78
2018-12-13T12:18:16.534Z,51.99
2018-12-13T12:20:48.653Z,51.45
2018-12-13T12:23:20.697Z,50.65
2018-12-13T12:26:02.026Z,50.67
2018-12-13T12:28:31.590Z,50.12
2018-12-13T12:31:01.617Z,50.55
2018-12-13T12:33:33.784Z,51.18
2018-12-13T12:36:14.455Z,51.08
2018-12-13T12:38:55.761Z,51.13
2018-12-13T12:41:25.227Z,51.71
2018-12-13T12:43:57.188Z,51.57
2018-12-13T12:46:31.162Z,52.15
2018-12-13T12:49:11.814Z,49.25
2018-12-13T12:51:52.878Z,50.09
2018-12-13T12:54:27.391Z,49.22
2018-12-13T12:57:01.450Z,49.17
2018-12-13T12:59:55.927Z,47.46
2018-12-13T13:02:31.501Z,49.13
2018-12-13T13:05:01.676Z,50.19
2018-12-13T13:07:36.494Z,48.84
2018-12-13T13:10:10.476Z,50.13
2018-12-13T13:12:41.870Z,49.02
2018-12-13T13:15:22.658Z,49.84
2018-12-13T13:17:52.382Z,48.71
2018-12-13T13:20:26.321Z,48.70
2018-12-13T13:22:57.746Z,47.60
2018-12-13T13:25:39.313Z,48.60
2018-12-13T13:28:20.454Z,48.43
2018-12-13T13:30:55.544Z,49.91
2018-12-13T13:33:26.979Z,48.16
2018-12-13T13:35:59.026Z,48.29
2018-12-13T13:38:30.233Z,47.61
2018-12-13T13:41:11.668Z,47.65
2018-12-13T13:43:41.225Z,47.76
2018-12-13T13:46:16.086Z,47.81
2018-12-13T13:48:56.955Z,47.22
2018-12-13T13:51:38.026Z,47.41
2018-12-13T13:54:09.970Z,47.60
2018-12-13T13:56:50.660Z,46.81
2018-12-13T13:59:20.640Z,47.71
2018-12-13T14:02:01.425Z,48.34
2018-12-13T14:04:42.537Z,48.23
2018-12-13T14:07:12.245Z,48.10
2018-12-13T14:09:42.401Z,48.07
2018-12-13T14:12:23.206Z,48.76
2018-12-13T14:15:04.549Z,48.99
2018-12-13T14:17:34.489Z,48.53
2018-12-13T14:20:06.348Z,47.93
2018-12-13T14:22:37.917Z,48.47
2018-12-13T14:25:09.202Z,48.93
2018-12-13T14:27:50.509Z,49.13
2018-12-13T14:30:25.916Z,49.61
2018-12-13T14:33:00.120Z,49.10
2018-12-13T14:35:34.971Z,48.29
2018-12-13T14:38:15.842Z,48.92
2018-12-13T14:40:57.006Z,48.85
2018-12-13T14:43:33.847Z,49.12
2018-12-13T14:46:05.390Z,47.89
2018-12-13T14:48:50.853Z,48.22
2018-12-13T14:51:20.586Z,48.10
2018-12-13T14:53:50.605Z,48.71
2018-12-13T14:56:24.630Z,48.82
2018-12-13T14:58:58.816Z,48.59
2018-12-13T15:01:39.758Z,48.81
2018-12-13T15:04:11.476Z,48.86
2018-12-13T15:06:53.035Z,50.04
2018-12-13T15:09:24.985Z,49.78
2018-12-13T15:11:59.909Z,49.34
2018-12-13T15:14:34.028Z,49.74
2018-12-13T15:17:05.291Z,49.48
2018-12-13T15:19:46.106Z,49.49
2018-12-13T15:22:27.228Z,50.55
2018-12-13T15:25:08.261Z,49.91
2018-12-13T15:27:49.414Z,50.31
2018-12-13T15:30:30.494Z,51.37
2018-12-13T15:33:00.134Z,51.87
2018-12-13T15:35:41.695Z,50.62
2018-12-13T15:38:13.251Z,51.81
2018-12-13T15:40:48.162Z,51.37
2018-12-13T15:43:20.325Z,52.26
2018-12-13T15:45:58.327Z,53.10
2018-12-13T15:48:39.174Z,53.40
2018-12-13T15:51:20.028Z,52.95
2018-12-13T15:53:51.738Z,53.02
2018-12-13T15:56:33.142Z,52.74
2018-12-13T15:59:14.058Z,52.41
2018-12-13T16:01:55.202Z,52.98
2018-12-13T16:04:26.662Z,52.90
2018-12-13T16:07:00.957Z,54.15
2018-12-13T16:09:41.886Z,53.73
2018-12-13T16:12:23.018Z,53.32
2018-12-13T16:14:57.324Z,53.52
2018-12-13T16:17:28.598Z,54.14
2018-12-13T16:20:10.245Z,54.29
2018-12-13T16:22:41.792Z,54.13
2018-12-13T16:25:22.471Z,54.69
2018-12-13T16:28:03.537Z,54.19
2018-12-13T16:30:41.690Z,54.81
2018-12-13T16:33:13.110Z,54.49
2018-12-13T16:35:44.387Z,54.03
2018-12-13T16:38:14.598Z,54.34
2018-12-13T16:40:55.323Z,54.27
2018-12-13T16:43:29.793Z,54.66
2018-12-13T16:46:01.187Z,54.82
2018-12-13T16:48:42.697Z,54.80
2018-12-13T16:51:23.675Z,56.37
2018-12-13T16:53:55.506Z,56.10
2018-12-13T16:56:36.957Z,55.12
2018-12-13T16:59:17.668Z,55.49
2018-12-13T17:01:58.768Z,56.42
2018-12-13T17:04:30.189Z,56.82
2018-12-13T17:07:08.275Z,56.23
2018-12-13T17:09:42.427Z,57.14
2018-12-13T17:12:23.294Z,57.56
2018-12-13T17:14:53.065Z,58.58
2018-12-13T17:17:27.972Z,58.26
2018-12-13T17:20:08.693Z,57.93
2018-12-13T17:22:40.497Z,59.25
2018-12-13T17:25:22.141Z,58.67
2018-12-13T17:28:03.207Z,58.72
2018-12-13T17:30:44.074Z,58.93
2018-12-13T17:33:15.574Z,58.91
2018-12-13T17:35:59.103Z,58.60
2018-12-13T17:41:15.887Z,59.35
2018-12-13T17:43:47.903Z,58.70
2018-12-13T17:49:36.117Z,58.85
2018-12-13T17:52:16.963Z,57.89
2018-12-13T17:54:57.980Z,58.05
2018-12-13T17:57:39.288Z,57.94
2018-12-13T18:00:20.287Z,58.70
2018-12-13T18:02:52.009Z,58.53
2018-12-13T18:05:22.066Z,57.58
2018-12-13T18:08:02.783Z,58.53
2018-12-13T18:10:43.860Z,58.29
2018-12-13T18:13:15.762Z,58.96
2018-12-13T18:15:57.271Z,58.82
2018-12-13T18:18:31.573Z,59.28
2018-12-13T18:21:12.395Z,59.42
2018-12-13T18:23:43.722Z,59.41
2018-12-13T18:26:15.770Z,58.81
2018-12-13T18:28:57.179Z,58.66
2018-12-13T18:31:38.185Z,58.91
2018-12-13T18:34:09.974Z,58.54
2018-12-13T18:36:51.566Z,59.44
2018-12-13T18:39:32.458Z,59.29
2018-12-13T18:42:06.730Z,59.93
2018-12-13T18:44:42.093Z,60.27
2018-12-13T18:47:12.051Z,60.09
2018-12-13T18:49:53.607Z,61.01
2018-12-13T18:52:25.270Z,60.49
2018-12-13T18:55:06.652Z,60.50
2018-12-13T18:57:47.531Z,60.19
2018-12-13T19:00:22.820Z,60.02
2018-12-13T19:02:54.162Z,60.97
2018-12-13T19:05:24.335Z,61.39
2018-12-13T19:10:58.664Z,59.67
2018-12-13T19:13:30.417Z,59.85
2018-12-13T19:16:00.486Z,60.12
2018-12-13T19:18:31.813Z,60.44
2018-12-13T19:21:12.591Z,60.85
2018-12-13T19:23:46.893Z,61.52
2018-12-13T19:26:20.904Z,61.06
2018-12-13T19:28:55.141Z,60.91
2018-12-13T19:31:36.031Z,60.85
2018-12-13T19:34:07.597Z,60.72
2018-12-13T19:36:48.376Z,61.03
2018-12-13T19:39:22.595Z,61.25
2018-12-13T19:41:56.582Z,60.74
2018-12-13T19:44:28.171Z,60.80
2018-12-13T19:47:04.901Z,60.73
2018-12-13T19:49:45.813Z,61.32
2018-12-13T19:52:21.462Z,61.33
2018-12-13T19:55:03.111Z,60.83
2018-12-13T19:57:44.171Z,60.35
2018-12-13T20:00:25.049Z,60.84
2018-12-13T20:02:56.737Z,60.98
2018-12-13T20:05:37.428Z,60.08
2018-12-13T20:08:11.843Z,60.92
2018-12-13T20:10:43.432Z,61.24
2018-12-13T20:13:24.943Z,60.66
2018-12-13T20:15:54.533Z,60.52
2018-12-13T20:18:30.424Z,60.42
2018-12-13T20:21:11.215Z,61.14
2018-12-13T20:23:42.694Z,61.15
2018-12-13T20:26:14.860Z,61.00
2018-12-13T20:28:49.014Z,61.31
2018-12-13T20:31:23.025Z,60.84
2018-12-13T20:33:54.514Z,61.63
2018-12-13T20:36:39.771Z,61.71
2018-12-13T20:39:11.666Z,61.98
2018-12-13T20:41:52.355Z,61.74
2018-12-13T20:44:24.217Z,61.48
2018-12-13T20:46:58.919Z,62.21
2018-12-13T20:49:39.663Z,62.29
2018-12-13T20:52:20.641Z,62.27
2018-12-13T20:54:50.379Z,61.94
2018-12-13T20:57:31.884Z,62.38
2018-12-13T21:00:08.722Z,62.14
2018-12-13T21:02:38.521Z,62.57
2018-12-13T21:05:08.572Z,62.65
2018-12-13T21:07:38.526Z,62.04
2018-12-13T21:10:10.721Z,62.30
2018-12-13T21:12:45.306Z,62.55
2018-12-13T21:15:26.210Z,62.56
2018-12-13T21:17:57.465Z,62.06
2018-12-13T21:20:29.720Z,62.97
2018-12-13T21:23:01.789Z,62.34
2018-12-13T21:25:31.191Z,62.00
2018-12-13T21:28:05.307Z,61.94
2018-12-13T21:33:43.448Z,62.06
2018-12-13T21:42:27.850Z,61.92
2018-12-13T21:44:59.787Z,61.89
2018-12-13T21:47:38.602Z,61.54
2018-12-13T21:50:19.547Z,61.93
2018-12-13T21:52:53.848Z,62.14
2018-12-13T21:55:27.859Z,61.42
2018-12-13T22:01:06.401Z,60.03
2018-12-13T22:03:41.222Z,60.78
2018-12-13T22:06:21.978Z,58.56
2018-12-13T22:08:56.665Z,57.96
2018-12-13T22:11:30.644Z,58.10
2018-12-13T22:14:01.900Z,57.83
2018-12-13T22:16:42.657Z,58.05
2018-12-13T22:19:12.375Z,58.28
2018-12-13T22:21:43.590Z,58.33
2018-12-13T22:24:15.707Z,58.45
2018-12-13T22:26:45.561Z,59.25
2018-12-13T22:29:22.191Z,58.80
2018-12-13T22:32:03.234Z,58.90
2018-12-13T22:34:33.080Z,59.63
2018-12-13T22:37:14.538Z,59.32
2018-12-13T22:39:48.946Z,59.21
2018-12-13T22:45:26.011Z,60.44
2018-12-13T22:48:00.551Z,60.13
2018-12-13T22:50:31.847Z,59.58
2018-12-13T22:53:03.912Z,60.07
2018-12-13T22:55:44.582Z,59.45
2018-12-13T22:58:16.326Z,60.41
2018-12-13T23:00:51.244Z,59.05
2018-12-13T23:03:22.668Z,59.04
2018-12-13T23:05:52.500Z,58.89
2018-12-13T23:08:33.732Z,58.97
2018-12-13T23:11:05.449Z,60.08
2018-12-13T23:13:47.088Z,60.65
2018-12-13T23:16:19.102Z,60.58
2018-12-13T23:22:07.566Z,58.12
2018-12-13T23:24:37.055Z,59.37
2018-12-13T23:27:11.862Z,59.09
2018-12-13T23:29:52.554Z,57.86
2018-12-13T23:32:26.819Z,58.01
2018-12-13T23:35:00.821Z,59.80
2018-12-13T23:37:42.389Z,59.59
2018-12-13T23:40:16.702Z,60.91
2018-12-13T23:42:58.112Z,59.60
2018-12-13T23:45:32.627Z,59.32
2018-12-13T23:48:06.651Z,59.13
2018-12-13T23:50:47.391Z,59.64
2018-12-13T23:53:24.015Z,60.21
2018-12-13T23:55:56.231Z,60.90
2018-12-13T23:58:37.723Z,60.73
